Time;durP1;ratioP1;P1;durP2;ratioP2;P2;SDS_P1;SDS_P2;PMS_P1;PMS_P2;Temp;Humidity;BMP_temperature;BMP_pressure;BME280_temperature;BME280_humidity;BME280_pressure;Samples;Min_cycle;Max_cycle;Signal;HPM_P1;HPM_P2
2021/12/01 00:00:00;;;;;;;1.20;1.00;;;6.70;99.90;;;;;;5016237;28;20828;-62
2021/12/01 00:02:26;;;;;;;0.83;0.83;;;6.80;99.90;;;;;;5014771;28;20458;-61
2021/12/01 00:04:51;;;;;;;0.93;0.83;;;6.60;99.90;;;;;;5015976;28;20556;-59
2021/12/01 00:07:17;;;;;;;1.33;1.23;;;6.60;99.90;;;;;;5016275;28;20259;-59
2021/12/01 00:09:43;;;;;;;1.30;1.00;;;6.60;99.90;;;;;;5016198;28;20161;-62
2021/12/01 00:12:09;;;;;;;1.07;0.83;;;6.60;99.90;;;;;;5016066;28;20394;-61
2021/12/01 00:14:35;;;;;;;1.00;0.90;;;6.60;99.90;;;;;;5015459;28;20647;-61
2021/12/01 00:17:00;;;;;;;1.27;1.17;;;6.60;99.90;;;;;;5016042;28;20404;-63
2021/12/01 00:19:29;;;;;;;1.30;1.03;;;6.50;99.90;;;;;;5016040;28;20544;-62
2021/12/01 00:21:55;;;;;;;2.23;1.53;;;6.50;99.90;;;;;;5015829;28;20180;-60
2021/12/01 00:24:21;;;;;;;0.90;0.90;;;6.50;99.90;;;;;;5015678;28;20826;-61
2021/12/01 00:26:47;;;;;;;2.70;1.30;;;6.50;99.90;;;;;;5015599;28;20415;-62
2021/12/01 00:29:13;;;;;;;1.73;1.10;;;6.50;99.90;;;;;;5015589;28;20169;-60
2021/12/01 00:31:38;;;;;;;2.87;1.30;;;6.20;99.90;;;;;;5015414;28;20172;-61
2021/12/01 00:34:04;;;;;;;1.40;1.30;;;6.50;99.90;;;;;;5015527;28;20855;-62
2021/12/01 00:36:30;;;;;;;2.30;1.10;;;6.40;99.90;;;;;;5015652;28;20203;-62
2021/12/01 00:38:55;;;;;;;1.20;1.10;;;6.30;99.90;;;;;;5015353;28;20168;-62
2021/12/01 00:41:22;;;;;;;1.10;1.00;;;6.30;99.90;;;;;;5015332;28;20180;-62
2021/12/01 00:43:48;;;;;;;0.93;0.80;;;6.30;99.90;;;;;;5015156;28;20558;-61
2021/12/01 00:46:20;;;;;;;1.00;0.90;;;6.40;99.90;;;;;;5015134;28;20430;-62
2021/12/01 00:48:45;;;;;;;0.80;0.77;;;6.40;99.90;;;;;;5015598;28;20487;-62
2021/12/01 00:51:11;;;;;;;1.10;1.00;;;6.30;99.90;;;;;;5015553;28;20407;-62
2021/12/01 00:53:37;;;;;;;1.27;0.93;;;6.20;99.90;;;;;;5015317;28;20168;-62
2021/12/01 00:56:03;;;;;;;1.00;0.90;;;6.20;99.90;;;;;;5014996;28;20188;-62
2021/12/01 00:58:29;;;;;;;1.93;1.00;;;6.40;99.90;;;;;;4996233;28;20794;-60
2021/12/01 01:00:55;;;;;;;1.23;1.00;;;6.40;99.90;;;;;;5015106;28;20414;-61
2021/12/01 01:03:21;;;;;;;1.20;1.10;;;6.30;99.90;;;;;;5015159;28;20198;-62
2021/12/01 01:05:47;;;;;;;0.90;0.80;;;6.20;99.90;;;;;;5014890;28;20200;-62
2021/12/01 01:08:15;;;;;;;0.90;0.80;;;6.20;99.90;;;;;;5015172;28;20399;-62
2021/12/01 01:18:44;;;;;;;1.10;1.00;;;6.30;99.90;;;;;;5014793;28;20389;-62
2021/12/01 01:21:11;;;;;;;0.93;0.83;;;6.30;99.90;;;;;;5014784;28;20402;-62
2021/12/01 01:23:37;;;;;;;2.10;1.10;;;6.40;99.90;;;;;;5014959;28;20541;-61
2021/12/01 01:26:07;;;;;;;1.50;1.10;;;6.40;99.90;;;;;;5006623;28;20420;-62
2021/12/01 01:28:33;;;;;;;2.27;1.23;;;6.50;99.90;;;;;;4979245;28;20401;-62
2021/12/01 01:30:59;;;;;;;1.27;1.00;;;6.50;99.90;;;;;;5014303;28;20550;-59
2021/12/01 01:33:25;;;;;;;1.20;1.10;;;6.50;99.90;;;;;;5014038;28;20498;-62
2021/12/01 01:35:52;;;;;;;1.10;1.00;;;6.40;99.90;;;;;;5014188;28;20514;-62
2021/12/01 01:38:18;;;;;;;1.00;0.90;;;6.40;99.90;;;;;;5013582;28;20462;-61
2021/12/01 01:40:44;;;;;;;1.40;1.30;;;6.50;99.90;;;;;;5014582;28;20928;-61
2021/12/01 01:43:10;;;;;;;1.30;1.20;;;6.40;99.90;;;;;;5014315;28;20413;-62
2021/12/01 01:45:35;;;;;;;1.23;1.13;;;6.60;99.90;;;;;;5014081;28;20419;-62
2021/12/01 01:48:06;;;;;;;1.37;1.27;;;6.70;99.90;;;;;;5014010;28;20410;-62
2021/12/01 01:50:36;;;;;;;1.50;1.40;;;6.80;99.90;;;;;;5014107;28;20178;-60
2021/12/01 01:53:23;;;;;;;1.57;1.47;;;6.60;99.90;;;;;;5014609;28;20783;-62
2021/12/01 01:55:55;;;;;;;1.30;1.20;;;6.70;99.90;;;;;;5014736;28;20429;-62
2021/12/01 01:58:21;;;;;;;1.33;1.20;;;6.50;99.90;;;;;;5005513;28;20452;-62
2021/12/01 02:00:51;;;;;;;1.73;1.63;;;6.60;99.90;;;;;;4993149;28;20439;-59
2021/12/01 02:03:21;;;;;;;1.53;1.33;;;6.60;99.90;;;;;;4985710;28;20456;-62
2021/12/01 02:05:48;;;;;;;2.10;1.60;;;6.60;99.90;;;;;;4994685;28;20444;-61
2021/12/01 02:08:28;;;;;;;3.10;1.60;;;6.50;99.90;;;;;;5008709;28;20420;-59
2021/12/01 02:10:55;;;;;;;1.30;1.20;;;6.70;99.90;;;;;;5014006;28;20721;-62
2021/12/01 02:13:21;;;;;;;2.10;1.60;;;6.90;99.90;;;;;;5013487;28;20780;-62
2021/12/01 02:15:49;;;;;;;2.27;1.27;;;6.70;99.90;;;;;;5020282;23;20491;-63
2021/12/01 02:18:15;;;;;;;1.70;1.60;;;6.60;99.90;;;;;;4982861;28;20634;-61
2021/12/01 02:20:57;;;;;;;1.10;1.00;;;6.50;99.90;;;;;;4992981;28;20409;-62
2021/12/01 02:23:23;;;;;;;1.33;1.23;;;6.60;99.90;;;;;;4994058;28;20187;-62
2021/12/01 02:25:49;;;;;;;1.60;1.50;;;6.70;99.90;;;;;;4993866;28;20429;-61
2021/12/01 02:28:14;;;;;;;1.97;1.50;;;6.70;99.90;;;;;;4993495;28;20173;-62
2021/12/01 02:30:40;;;;;;;1.20;1.10;;;6.70;99.90;;;;;;4994020;28;20488;-62
2021/12/01 02:33:06;;;;;;;2.40;1.50;;;6.80;99.90;;;;;;4993114;28;20176;-63
2021/12/01 02:35:31;;;;;;;1.60;1.40;;;6.70;99.90;;;;;;4993523;28;20271;-59
2021/12/01 02:37:57;;;;;;;2.00;1.80;;;6.70;99.90;;;;;;4993814;28;20203;-61
2021/12/01 02:40:23;;;;;;;1.37;1.27;;;6.90;99.90;;;;;;4993611;28;20540;-62
2021/12/01 02:42:49;;;;;;;1.40;1.30;;;6.80;99.90;;;;;;4992457;28;20423;-62
2021/12/01 02:45:14;;;;;;;2.17;1.37;;;6.70;99.90;;;;;;4993356;28;20192;-62
2021/12/01 02:47:40;;;;;;;1.30;1.20;;;6.60;99.90;;;;;;4993232;28;20192;-61
2021/12/01 02:50:06;;;;;;;1.40;1.30;;;6.70;99.90;;;;;;4996029;28;20168;-61
2021/12/01 02:52:35;;;;;;;1.40;1.30;;;6.70;99.90;;;;;;4997161;28;20244;-61
2021/12/01 02:55:06;;;;;;;1.37;1.27;;;6.80;99.90;;;;;;4997213;28;20454;-60
2021/12/01 02:57:48;;;;;;;1.63;1.07;;;6.90;99.90;;;;;;4997171;28;20877;-62
2021/12/01 03:00:16;;;;;;;1.10;1.00;;;7.00;99.90;;;;;;4997337;28;20404;-62
2021/12/01 03:02:43;;;;;;;1.20;1.10;;;6.80;99.90;;;;;;4996339;28;20784;-61
2021/12/01 03:05:09;;;;;;;2.90;1.13;;;7.00;99.90;;;;;;4996813;28;20456;-61
2021/12/01 03:07:35;;;;;;;1.27;1.17;;;7.00;99.90;;;;;;4997121;28;20418;-61
2021/12/01 03:10:02;;;;;;;1.73;1.07;;;7.10;99.90;;;;;;4996948;28;20433;-61
2021/12/01 03:12:32;;;;;;;1.17;0.90;;;7.10;99.90;;;;;;4997142;28;20409;-62
2021/12/01 03:14:58;;;;;;;1.53;1.13;;;7.10;99.90;;;;;;4997523;28;20395;-62
2021/12/01 03:17:27;;;;;;;1.57;1.13;;;7.10;99.90;;;;;;4996111;28;20454;-62
2021/12/01 03:19:53;;;;;;;1.53;1.40;;;6.90;99.90;;;;;;4992763;28;20177;-62
2021/12/01 03:22:18;;;;;;;0.80;0.80;;;7.00;99.90;;;;;;4977644;28;20413;-62
2021/12/01 03:24:44;;;;;;;1.37;1.27;;;7.10;99.90;;;;;;4977430;28;20473;-62
2021/12/01 03:27:10;;;;;;;1.10;1.00;;;7.20;99.90;;;;;;4977382;28;20185;-61
2021/12/01 03:29:35;;;;;;;1.17;1.07;;;7.00;99.90;;;;;;4977090;28;20167;-62
2021/12/01 03:32:02;;;;;;;1.60;1.10;;;7.00;99.90;;;;;;4976872;28;20174;-62
2021/12/01 03:34:28;;;;;;;1.30;1.20;;;7.10;99.90;;;;;;4977080;28;20202;-61
2021/12/01 03:36:54;;;;;;;1.40;1.30;;;7.00;99.90;;;;;;4976904;28;20942;-61
2021/12/01 03:39:20;;;;;;;1.87;1.50;;;7.10;99.90;;;;;;4976589;28;20441;-63
2021/12/01 03:41:46;;;;;;;1.40;1.00;;;7.10;99.90;;;;;;4978718;28;20179;-62
2021/12/01 03:44:11;;;;;;;1.37;1.27;;;7.00;99.90;;;;;;4996712;28;20490;-62
2021/12/01 03:46:37;;;;;;;1.50;1.10;;;7.00;99.90;;;;;;4996284;28;20661;-62
2021/12/01 03:49:03;;;;;;;1.27;1.17;;;7.10;99.90;;;;;;4996010;28;20168;-63
2021/12/01 03:51:29;;;;;;;1.10;1.03;;;7.30;99.90;;;;;;4996153;28;20249;-63
2021/12/01 03:53:54;;;;;;;1.47;1.37;;;7.40;99.90;;;;;;4996197;28;20702;-63
2021/12/01 03:56:20;;;;;;;1.10;0.97;;;7.40;99.90;;;;;;4996021;28;20452;-63
2021/12/01 03:58:47;;;;;;;1.40;1.00;;;7.40;99.90;;;;;;4996369;28;20635;-63
2021/12/01 04:01:13;;;;;;;1.23;1.10;;;7.30;99.90;;;;;;4995258;28;20177;-62
2021/12/01 04:03:39;;;;;;;0.93;0.87;;;7.20;99.90;;;;;;4995463;28;20443;-63
2021/12/01 04:06:05;;;;;;;2.93;1.10;;;7.20;99.90;;;;;;4994820;28;20456;-63
2021/12/01 04:08:32;;;;;;;1.33;1.23;;;7.30;99.90;;;;;;4995837;28;20179;-62
2021/12/01 04:10:57;;;;;;;1.47;1.00;;;7.20;99.90;;;;;;4994948;28;20924;-63
2021/12/01 04:13:23;;;;;;;2.10;1.10;;;7.10;99.90;;;;;;4996008;28;20421;-62
2021/12/01 04:15:48;;;;;;;1.60;1.30;;;7.30;99.90;;;;;;4995728;28;20608;-63
2021/12/01 04:18:14;;;;;;;1.30;1.20;;;7.20;99.90;;;;;;4995540;28;20253;-63
2021/12/01 04:20:41;;;;;;;1.00;0.90;;;7.40;99.90;;;;;;4995503;28;20170;-62
2021/12/01 04:23:07;;;;;;;1.53;1.40;;;7.50;99.90;;;;;;4995569;28;20419;-63
2021/12/01 04:25:33;;;;;;;1.67;1.07;;;7.50;99.90;;;;;;4995720;28;20788;-63
2021/12/01 04:27:59;;;;;;;1.47;1.30;;;7.60;99.90;;;;;;4995860;28;20487;-63
2021/12/01 04:30:25;;;;;;;1.20;1.10;;;7.70;99.90;;;;;;4995830;28;20941;-61
2021/12/01 04:32:52;;;;;;;5.03;1.37;;;7.80;99.90;;;;;;4995103;28;20205;-63
2021/12/01 04:35:19;;;;;;;2.30;1.63;;;7.60;99.90;;;;;;4994991;28;20415;-62
2021/12/01 04:37:46;;;;;;;1.77;1.30;;;7.50;99.90;;;;;;4995181;28;20473;-62
2021/12/01 04:40:14;;;;;;;1.97;1.77;;;7.20;99.90;;;;;;4995149;28;20420;-61
2021/12/01 04:42:40;;;;;;;1.90;1.60;;;7.20;99.90;;;;;;4994804;28;20916;-63
2021/12/01 04:45:13;;;;;;;1.47;1.13;;;7.20;99.90;;;;;;4994142;28;20540;-61
2021/12/01 04:47:43;;;;;;;1.40;1.30;;;7.30;99.90;;;;;;4994791;28;20163;-60
2021/12/01 04:50:10;;;;;;;1.57;1.13;;;7.20;99.90;;;;;;4994926;28;20409;-61
2021/12/01 04:52:36;;;;;;;1.40;1.30;;;7.10;99.90;;;;;;4995257;28;20816;-62
2021/12/01 04:55:02;;;;;;;1.60;1.10;;;7.30;99.90;;;;;;4994928;28;20428;-63
2021/12/01 04:57:28;;;;;;;1.47;1.27;;;7.10;99.90;;;;;;4994907;28;20201;-64
2021/12/01 04:59:53;;;;;;;1.20;1.03;;;7.20;99.90;;;;;;4976792;28;20429;-63
2021/12/01 05:02:19;;;;;;;1.27;1.03;;;7.20;99.90;;;;;;4994580;28;20192;-63
2021/12/01 05:04:44;;;;;;;1.60;1.00;;;7.30;99.90;;;;;;4994720;28;20193;-63
2021/12/01 05:07:10;;;;;;;1.30;1.00;;;7.40;99.90;;;;;;4994629;28;20186;-61
2021/12/01 05:09:36;;;;;;;1.10;1.00;;;7.50;99.90;;;;;;4990239;28;20673;-62
2021/12/01 05:12:03;;;;;;;0.90;0.80;;;7.50;99.90;;;;;;4987676;28;20456;-63
2021/12/01 05:14:29;;;;;;;1.30;1.10;;;7.50;99.90;;;;;;4993773;28;20228;-63
2021/12/01 05:16:55;;;;;;;1.50;1.10;;;7.60;99.90;;;;;;4989715;28;20876;-63
2021/12/01 05:19:20;;;;;;;1.10;0.80;;;7.70;99.90;;;;;;4973867;28;20163;-63
2021/12/01 05:21:47;;;;;;;1.20;0.90;;;7.50;99.90;;;;;;4975681;28;20723;-63
2021/12/01 05:24:12;;;;;;;3.90;0.87;;;7.60;99.90;;;;;;4974998;28;20214;-62
2021/12/01 05:26:38;;;;;;;0.97;0.87;;;7.60;99.90;;;;;;4975110;28;20438;-62
2021/12/01 05:29:05;;;;;;;1.73;0.97;;;7.50;99.90;;;;;;4975724;28;20179;-62
2021/12/01 05:31:31;;;;;;;1.07;0.80;;;7.50;99.90;;;;;;4975510;28;20418;-61
2021/12/01 05:33:57;;;;;;;1.00;0.90;;;7.50;99.90;;;;;;4975984;28;20426;-62
2021/12/01 05:36:22;;;;;;;1.10;0.87;;;7.50;99.90;;;;;;4975527;28;21007;-62
2021/12/01 05:38:48;;;;;;;6.67;1.23;;;7.50;99.90;;;;;;4975412;28;20174;-63
2021/12/01 05:41:14;;;;;;;3.40;1.13;;;7.50;99.90;;;;;;4975164;28;20181;-63
2021/12/01 05:43:39;;;;;;;1.00;0.80;;;7.60;99.90;;;;;;4974688;28;20199;-62
2021/12/01 05:46:05;;;;;;;0.90;0.70;;;7.50;99.90;;;;;;4984043;28;20189;-63
2021/12/01 05:48:31;;;;;;;1.10;1.00;;;7.60;99.90;;;;;;4994114;28;20519;-63
2021/12/01 05:50:56;;;;;;;0.93;0.80;;;7.60;99.90;;;;;;4994560;28;20167;-60
2021/12/01 05:53:22;;;;;;;1.23;0.90;;;7.60;99.90;;;;;;4994024;28;20177;-62
2021/12/01 05:55:48;;;;;;;1.00;0.87;;;7.60;99.90;;;;;;4994038;28;20187;-62
2021/12/01 05:58:13;;;;;;;1.33;0.70;;;7.80;99.90;;;;;;4994185;28;20205;-60
2021/12/01 06:00:39;;;;;;;1.40;0.70;;;7.80;99.90;;;;;;4993791;28;20590;-62
2021/12/01 06:03:05;;;;;;;1.50;0.90;;;7.90;99.90;;;;;;4993623;28;20171;-61
2021/12/01 06:05:30;;;;;;;0.93;0.83;;;7.90;99.90;;;;;;4993999;28;20438;-62
2021/12/01 06:07:56;;;;;;;3.10;0.93;;;8.00;99.90;;;;;;4994014;28;20183;-62
2021/12/01 06:10:22;;;;;;;1.83;0.70;;;7.90;99.90;;;;;;4993905;28;20206;-62
2021/12/01 06:12:48;;;;;;;0.80;0.70;;;8.10;99.90;;;;;;4994197;28;20195;-61
2021/12/01 06:15:16;;;;;;;1.00;0.80;;;8.10;99.90;;;;;;4993227;28;20945;-61
2021/12/01 06:17:43;;;;;;;1.10;0.70;;;8.20;99.90;;;;;;4993806;28;20410;-60
2021/12/01 06:20:11;;;;;;;0.97;0.83;;;8.30;99.90;;;;;;4994012;28;20422;-62
2021/12/01 06:22:37;;;;;;;1.27;0.70;;;8.30;99.90;;;;;;4993853;28;20414;-63
2021/12/01 06:25:03;;;;;;;0.80;0.70;;;8.30;99.90;;;;;;4995609;28;20876;-60
2021/12/01 06:27:28;;;;;;;1.90;0.83;;;8.30;99.90;;;;;;4997339;28;20198;-62
2021/12/01 06:29:54;;;;;;;2.20;0.77;;;8.20;99.90;;;;;;4997488;28;20417;-62
2021/12/01 06:32:21;;;;;;;0.70;0.60;;;8.30;99.90;;;;;;4996977;28;20172;-62
2021/12/01 06:34:47;;;;;;;1.00;0.80;;;8.30;99.90;;;;;;4997591;28;20799;-60
2021/12/01 06:37:13;;;;;;;1.33;1.10;;;8.30;99.90;;;;;;4997403;28;20438;-59
2021/12/01 06:39:38;;;;;;;1.83;0.80;;;8.30;99.90;;;;;;4997651;28;20182;-60
2021/12/01 06:42:04;;;;;;;0.80;0.60;;;8.20;99.90;;;;;;4997730;28;20198;-59
2021/12/01 06:44:30;;;;;;;2.27;1.20;;;8.10;99.90;;;;;;4997179;28;20211;-62
2021/12/01 06:46:57;;;;;;;3.10;1.07;;;8.30;99.90;;;;;;4997296;28;20211;-61
2021/12/01 06:49:23;;;;;;;1.33;1.10;;;8.30;99.90;;;;;;4997126;28;20418;-62
2021/12/01 06:51:49;;;;;;;0.80;0.70;;;8.20;99.90;;;;;;4997157;28;20494;-62
2021/12/01 06:54:14;;;;;;;1.20;0.90;;;8.30;99.90;;;;;;4997330;28;20180;-63
2021/12/01 06:56:40;;;;;;;0.80;0.70;;;8.30;99.90;;;;;;4997240;28;20438;-63
2021/12/01 06:59:06;;;;;;;1.13;0.77;;;8.40;99.90;;;;;;4995797;28;20183;-63
2021/12/01 07:01:31;;;;;;;1.00;0.80;;;8.40;99.90;;;;;;4996823;28;20632;-62
2021/12/01 07:03:57;;;;;;;1.30;1.10;;;8.20;99.90;;;;;;4996556;28;20197;-62
2021/12/01 07:06:22;;;;;;;1.13;0.60;;;8.20;99.90;;;;;;4995555;28;20187;-62
2021/12/01 07:08:48;;;;;;;0.70;0.60;;;8.10;99.90;;;;;;4996828;28;20183;-62
2021/12/01 07:11:14;;;;;;;1.00;0.57;;;8.20;99.90;;;;;;4996799;28;20178;-62
2021/12/01 07:13:39;;;;;;;1.13;0.90;;;8.30;99.90;;;;;;4996479;28;20175;-63
2021/12/01 07:16:05;;;;;;;1.20;0.80;;;8.30;99.90;;;;;;4996281;28;20211;-62
2021/12/01 07:18:31;;;;;;;1.10;0.77;;;8.30;99.90;;;;;;4996424;28;20176;-61
2021/12/01 07:20:56;;;;;;;2.60;0.93;;;8.40;99.90;;;;;;4996891;28;20183;-63
2021/12/01 07:23:23;;;;;;;1.43;0.90;;;8.50;99.90;;;;;;4978549;28;20263;-62
2021/12/01 07:25:49;;;;;;;0.80;0.60;;;8.30;99.90;;;;;;4979692;28;20194;-60
2021/12/01 07:28:15;;;;;;;0.80;0.70;;;8.50;99.90;;;;;;4979397;28;20417;-61
2021/12/01 07:30:40;;;;;;;0.93;0.70;;;8.50;99.90;;;;;;4975443;28;20503;-62
2021/12/01 07:33:07;;;;;;;0.80;0.60;;;8.50;99.90;;;;;;4991682;28;20457;-63
2021/12/01 07:35:33;;;;;;;0.80;0.60;;;8.40;99.90;;;;;;4974975;28;20196;-63
2021/12/01 07:37:59;;;;;;;0.80;0.70;;;8.60;99.90;;;;;;4976958;28;20416;-63
2021/12/01 07:40:24;;;;;;;0.90;0.70;;;8.40;99.90;;;;;;4976416;28;20730;-63
2021/12/01 07:42:51;;;;;;;0.73;0.60;;;8.50;99.90;;;;;;4976026;28;20181;-63
2021/12/01 07:45:17;;;;;;;2.30;0.70;;;8.60;99.90;;;;;;4986582;28;20218;-63
2021/12/01 07:47:42;;;;;;;1.40;0.80;;;8.50;99.90;;;;;;4978983;28;20903;-63
2021/12/01 07:50:09;;;;;;;0.80;0.60;;;8.60;99.90;;;;;;4996070;28;20260;-63
2021/12/01 07:52:36;;;;;;;1.37;0.80;;;8.50;99.90;;;;;;4980005;28;20193;-63
2021/12/01 07:55:02;;;;;;;0.70;0.57;;;8.60;99.90;;;;;;4994739;28;20418;-63
2021/12/01 07:57:29;;;;;;;1.17;0.80;;;8.50;99.90;;;;;;4995245;28;20536;-61
2021/12/01 07:59:55;;;;;;;0.80;0.53;;;8.70;99.90;;;;;;4978149;28;20912;-61
2021/12/01 08:02:21;;;;;;;0.90;0.70;;;8.70;99.90;;;;;;4977596;28;20472;-62
2021/12/01 08:04:46;;;;;;;0.70;0.50;;;8.70;99.90;;;;;;4987947;28;20212;-64
2021/12/01 08:07:12;;;;;;;0.80;0.60;;;8.80;99.90;;;;;;4995934;28;20270;-63
2021/12/01 08:09:38;;;;;;;3.70;0.70;;;8.90;99.90;;;;;;4977636;28;20614;-63
2021/12/01 08:12:04;;;;;;;0.87;0.70;;;8.90;99.90;;;;;;4979266;28;20411;-63
2021/12/01 08:14:29;;;;;;;1.00;0.60;;;8.90;99.90;;;;;;4995963;28;20231;-63
2021/12/01 08:16:55;;;;;;;0.87;0.60;;;8.90;99.90;;;;;;4975991;23;21234;-61
2021/12/01 08:19:21;;;;;;;1.00;0.60;;;8.90;99.90;;;;;;4940779;29;20180;-61
2021/12/01 08:21:49;;;;;;;1.10;0.70;;;9.00;99.90;;;;;;4957460;29;20166;-61
2021/12/01 08:24:16;;;;;;;0.80;0.70;;;8.90;99.90;;;;;;4941924;29;20468;-61
2021/12/01 08:26:43;;;;;;;1.00;0.50;;;8.80;99.90;;;;;;4958287;29;20464;-59
2021/12/01 08:29:09;;;;;;;1.07;0.67;;;8.80;99.90;;;;;;4941129;29;20408;-63
2021/12/01 08:31:35;;;;;;;2.60;0.57;;;8.90;99.90;;;;;;4952740;28;20443;-62
2021/12/01 08:34:01;;;;;;;1.23;0.77;;;8.90;99.90;;;;;;4957001;28;20925;-61
2021/12/01 08:36:27;;;;;;;1.97;0.50;;;8.90;99.90;;;;;;4939857;29;20190;-61
2021/12/01 08:38:53;;;;;;;2.10;0.53;;;9.00;99.90;;;;;;4960232;28;20177;-61
2021/12/01 08:41:19;;;;;;;0.83;0.50;;;9.10;99.90;;;;;;4967588;28;21025;-61
2021/12/01 08:43:44;;;;;;;0.97;0.60;;;9.10;99.90;;;;;;4940445;29;20479;-61
2021/12/01 08:46:10;;;;;;;0.90;0.53;;;9.10;99.90;;;;;;4940082;29;20173;-62
2021/12/01 08:48:37;;;;;;;1.40;0.73;;;9.20;99.90;;;;;;4956912;28;20192;-61
2021/12/01 08:51:03;;;;;;;0.80;0.50;;;9.30;99.90;;;;;;4957456;29;20401;-62
2021/12/01 08:53:34;;;;;;;0.80;0.50;;;9.20;99.90;;;;;;4957715;29;20964;-62
2021/12/01 08:56:01;;;;;;;0.90;0.80;;;9.20;99.90;;;;;;4939942;29;20416;-61
2021/12/01 08:58:27;;;;;;;0.80;0.60;;;9.30;99.90;;;;;;4955718;29;21026;-61
2021/12/01 09:00:55;;;;;;;0.70;0.50;;;9.30;99.90;;;;;;4956717;29;20428;-62
2021/12/01 09:03:21;;;;;;;0.80;0.70;;;9.30;99.90;;;;;;4957261;29;20413;-61
2021/12/01 09:05:48;;;;;;;0.80;0.50;;;9.30;99.90;;;;;;4955768;29;20439;-61
2021/12/01 09:08:15;;;;;;;1.67;0.60;;;9.40;99.90;;;;;;4956769;29;20956;-62
2021/12/01 09:10:41;;;;;;;1.57;0.70;;;9.50;99.90;;;;;;4957055;29;20410;-62
2021/12/01 09:13:07;;;;;;;1.00;0.60;;;9.40;99.90;;;;;;4957030;29;20751;-62
2021/12/01 09:15:34;;;;;;;0.97;0.83;;;9.70;99.90;;;;;;4938941;29;20269;-62
2021/12/01 09:18:00;;;;;;;0.70;0.60;;;10.00;99.90;;;;;;4956075;28;20441;-62
2021/12/01 09:20:26;;;;;;;1.30;0.70;;;9.90;99.90;;;;;;4957511;28;20406;-62
2021/12/01 09:22:52;;;;;;;1.20;0.60;;;10.00;99.90;;;;;;4939792;29;20764;-62
2021/12/01 09:25:18;;;;;;;1.23;0.67;;;10.10;99.90;;;;;;4956695;29;20191;-60
2021/12/01 09:27:45;;;;;;;1.23;0.63;;;10.10;99.90;;;;;;4956996;29;20429;-62
2021/12/01 09:30:12;;;;;;;0.70;0.60;;;10.20;99.90;;;;;;4955287;29;20460;-62
2021/12/01 09:32:38;;;;;;;1.53;0.70;;;10.50;99.90;;;;;;4939613;29;20418;-62
2021/12/01 09:35:05;;;;;;;2.13;0.50;;;10.40;99.90;;;;;;4956633;29;20460;-59
2021/12/01 09:37:31;;;;;;;1.00;0.70;;;10.30;99.90;;;;;;4955641;29;20223;-61
2021/12/01 09:39:57;;;;;;;1.77;0.50;;;10.30;99.90;;;;;;4957086;29;20419;-62
2021/12/01 09:42:23;;;;;;;0.70;0.40;;;10.20;99.90;;;;;;4956798;29;20419;-62
2021/12/01 09:44:50;;;;;;;1.00;0.83;;;10.10;99.90;;;;;;4954154;28;20274;-62
2021/12/01 09:47:19;;;;;;;0.70;0.50;;;10.30;99.90;;;;;;4956606;29;20429;-62
2021/12/01 09:49:46;;;;;;;0.80;0.63;;;10.30;99.90;;;;;;4939289;29;20850;-62
2021/12/01 09:52:11;;;;;;;0.70;0.50;;;10.30;99.90;;;;;;4956719;29;20420;-61
2021/12/01 09:54:39;;;;;;;0.90;0.60;;;10.30;99.90;;;;;;4956670;29;20806;-59
2021/12/01 09:57:12;;;;;;;0.73;0.47;;;10.20;99.90;;;;;;4956321;28;20268;-61
2021/12/01 09:59:38;;;;;;;0.70;0.50;;;10.20;99.90;;;;;;4955521;28;20414;-61
2021/12/01 10:02:04;;;;;;;1.73;0.90;;;10.40;99.90;;;;;;4955381;28;20511;-62
2021/12/01 10:04:30;;;;;;;0.80;0.60;;;10.30;99.90;;;;;;4938742;29;21029;-61
2021/12/01 10:07:17;;;;;;;4.53;0.80;;;10.30;99.90;;;;;;4955912;29;20452;-60
2021/12/01 10:09:44;;;;;;;1.23;0.53;;;10.40;99.90;;;;;;4954787;29;20170;-62
2021/12/01 10:12:10;;;;;;;0.90;0.70;;;10.60;99.90;;;;;;4956061;29;20425;-62
2021/12/01 10:14:36;;;;;;;0.80;0.57;;;10.60;99.90;;;;;;4955958;29;20417;-62
2021/12/01 10:17:02;;;;;;;0.90;0.60;;;10.50;99.90;;;;;;4955285;28;20453;-63
2021/12/01 10:19:28;;;;;;;0.80;0.60;;;10.80;99.90;;;;;;4954646;28;20187;-62
2021/12/01 10:21:54;;;;;;;0.70;0.50;;;10.80;99.90;;;;;;4938414;29;20411;-62
2021/12/01 10:24:26;;;;;;;0.90;0.60;;;10.90;99.90;;;;;;4955581;28;20197;-62
2021/12/01 10:27:12;;;;;;;1.13;0.60;;;10.80;99.90;;;;;;4954402;28;20957;-62
2021/12/01 10:29:50;;;;;;;2.10;0.50;;;10.90;99.90;;;;;;4955871;29;20401;-61
2021/12/01 10:32:19;;;;;;;1.13;0.60;;;10.90;99.90;;;;;;4938982;29;20406;-62
2021/12/01 10:34:57;;;;;;;1.63;0.70;;;10.90;99.90;;;;;;4956346;29;20417;-62
2021/12/01 10:37:33;;;;;;;0.80;0.50;;;10.90;99.90;;;;;;4938452;29;20846;-62
2021/12/01 10:40:03;;;;;;;1.03;0.60;;;11.10;99.90;;;;;;4938817;29;20417;-62
2021/12/01 10:42:29;;;;;;;0.83;0.57;;;11.20;99.90;;;;;;4937796;28;20437;-62
2021/12/01 10:45:01;;;;;;;0.70;0.40;;;11.20;99.90;;;;;;4953601;28;20520;-61
2021/12/01 10:47:40;;;;;;;2.10;0.60;;;11.20;99.90;;;;;;4938058;29;20199;-62
2021/12/01 10:50:07;;;;;;;1.13;0.60;;;11.20;99.90;;;;;;4955450;29;20469;-62
2021/12/01 10:52:34;;;;;;;1.70;0.60;;;11.10;99.90;;;;;;4955701;29;20441;-62
2021/12/01 10:55:09;;;;;;;1.87;0.67;;;11.30;99.90;;;;;;4956395;29;20770;-61
2021/12/01 10:57:39;;;;;;;0.70;0.50;;;11.30;99.90;;;;;;4954848;29;20420;-62
2021/12/01 11:00:13;;;;;;;0.90;0.50;;;11.20;99.90;;;;;;4952899;28;20484;-62
2021/12/01 11:02:39;;;;;;;0.80;0.50;;;11.10;99.90;;;;;;4955775;29;20398;-61
2021/12/01 11:05:05;;;;;;;0.70;0.40;;;11.20;99.90;;;;;;4955077;29;20444;-62
2021/12/01 11:07:33;;;;;;;0.93;0.50;;;11.20;99.90;;;;;;4955108;29;20182;-62
2021/12/01 11:10:17;;;;;;;1.80;0.50;;;11.30;99.90;;;;;;4954294;28;20417;-63
2021/12/01 11:12:44;;;;;;;0.73;0.50;;;11.20;99.90;;;;;;4939713;29;20433;-62
2021/12/01 11:15:24;;;;;;;0.90;0.50;;;11.20;99.90;;;;;;4958516;29;20460;-62
2021/12/01 11:17:51;;;;;;;1.93;0.60;;;11.20;99.90;;;;;;4957201;29;20472;-62
2021/12/01 11:20:36;;;;;;;0.70;0.50;;;11.20;99.90;;;;;;4958622;29;20417;-62
2021/12/01 11:23:15;;;;;;;0.90;0.60;;;11.50;99.90;;;;;;4957891;29;20403;-62
2021/12/01 11:25:43;;;;;;;1.70;0.50;;;11.50;99.90;;;;;;4940729;29;20488;-62
2021/12/01 11:28:13;;;;;;;0.80;0.50;;;11.70;99.90;;;;;;4957584;29;20437;-62
2021/12/01 11:30:41;;;;;;;1.00;0.70;;;11.70;99.90;;;;;;4938170;28;20448;-63
2021/12/01 11:33:11;;;;;;;1.13;0.60;;;11.50;99.90;;;;;;4958237;29;20410;-63
2021/12/01 11:35:37;;;;;;;1.87;0.73;;;11.40;99.90;;;;;;4957104;29;20466;-62
2021/12/01 11:38:04;;;;;;;1.60;0.77;;;11.20;99.90;;;;;;4940800;29;20566;-63
2021/12/01 11:40:30;;;;;;;0.80;0.60;;;11.50;99.90;;;;;;4956681;28;20424;-63
2021/12/01 11:42:58;;;;;;;0.90;0.70;;;12.00;99.90;;;;;;4953514;28;20446;-63
2021/12/01 11:45:24;;;;;;;0.90;0.50;;;12.40;99.90;;;;;;4957465;28;20465;-62
2021/12/01 11:47:51;;;;;;;0.90;0.60;;;13.00;99.90;;;;;;4959455;29;20430;-62
2021/12/01 11:50:43;;;;;;;0.63;0.50;;;13.60;99.90;;;;;;4957504;29;20470;-61
2021/12/01 11:53:25;;;;;;;1.00;0.60;;;13.50;99.90;;;;;;4958497;29;20392;-60
2021/12/01 11:55:57;;;;;;;1.20;0.70;;;13.40;99.90;;;;;;4957874;29;20391;-63
2021/12/01 11:58:41;;;;;;;0.80;0.60;;;13.40;99.90;;;;;;4957386;29;20435;-63
2021/12/01 12:01:27;;;;;;;1.77;0.77;;;13.40;99.90;;;;;;4958122;29;20952;-63
2021/12/01 12:03:53;;;;;;;1.00;0.70;;;13.20;99.90;;;;;;4950678;29;20457;-63
2021/12/01 12:06:22;;;;;;;0.80;0.80;;;13.10;99.90;;;;;;4958730;28;20414;-62
2021/12/01 12:08:54;;;;;;;0.80;0.60;;;12.90;99.90;;;;;;4958509;28;20644;-63
2021/12/01 12:11:46;;;;;;;2.90;0.70;;;12.80;99.90;;;;;;4958290;29;20405;-62
2021/12/01 12:14:14;;;;;;;1.10;0.80;;;13.40;99.90;;;;;;4958435;28;20406;-61
2021/12/01 12:16:59;;;;;;;1.10;0.80;;;13.50;99.90;;;;;;4958245;28;20459;-63
2021/12/01 12:19:46;;;;;;;3.03;0.60;;;13.80;99.90;;;;;;4958345;29;20392;-62
2021/12/01 12:22:17;;;;;;;0.70;0.60;;;14.20;99.90;;;;;;4957795;28;20433;-63
2021/12/01 12:24:53;;;;;;;1.57;0.80;;;14.50;99.90;;;;;;4957656;29;20486;-64
2021/12/01 12:27:32;;;;;;;0.97;0.70;;;14.40;99.90;;;;;;4957800;29;20421;-62
2021/12/01 12:29:59;;;;;;;0.87;0.60;;;14.20;99.90;;;;;;4957200;28;20402;-62
2021/12/01 12:32:29;;;;;;;1.23;0.93;;;13.40;99.90;;;;;;4956538;28;20417;-60
2021/12/01 12:34:58;;;;;;;1.07;0.80;;;13.20;99.90;;;;;;4957532;29;20502;-58
2021/12/01 12:37:30;;;;;;;1.10;0.83;;;12.70;99.90;;;;;;4957264;29;20559;-61
2021/12/01 12:39:58;;;;;;;0.90;0.80;;;12.40;99.90;;;;;;4956106;29;20398;-62
2021/12/01 12:42:24;;;;;;;1.47;0.70;;;12.50;99.90;;;;;;4957767;29;20970;-62
2021/12/01 12:44:52;;;;;;;1.20;0.90;;;12.70;99.90;;;;;;4956786;29;20453;-61
2021/12/01 12:47:27;;;;;;;1.33;1.23;;;12.60;99.90;;;;;;4956039;28;20533;-61
2021/12/01 12:50:00;;;;;;;1.20;0.90;;;12.50;99.90;;;;;;4957635;29;20722;-63
2021/12/01 12:52:26;;;;;;;1.70;1.07;;;12.00;99.90;;;;;;4955919;29;20438;-63
2021/12/01 12:54:56;;;;;;;1.60;0.80;;;11.80;99.90;;;;;;4957444;29;20417;-63
2021/12/01 12:57:23;;;;;;;1.07;0.97;;;11.60;99.90;;;;;;4955591;29;20256;-62
2021/12/01 12:59:49;;;;;;;1.93;1.10;;;11.50;99.90;;;;;;4954196;28;20426;-62
2021/12/01 13:02:15;;;;;;;2.03;1.10;;;11.30;99.90;;;;;;4957208;29;20518;-62
2021/12/01 13:05:05;;;;;;;1.10;0.90;;;11.10;99.90;;;;;;4956672;29;20445;-62